createdAt,value
2023-03-08T00:01:08.961Z,83.56
2023-03-08T00:03:35.448Z,83.60
2023-03-08T00:06:06.245Z,84.15
2023-03-08T00:08:33.355Z,84.27
2023-03-08T00:10:59.917Z,84.26
2023-03-08T00:13:26.443Z,84.39
2023-03-08T00:15:52.898Z,84.39
2023-03-08T00:18:19.285Z,84.45
2023-03-08T00:20:45.699Z,84.54
2023-03-08T00:23:14.727Z,84.71
2023-03-08T00:25:41.338Z,84.72
2023-03-08T00:28:07.792Z,84.69
2023-03-08T00:30:34.146Z,84.48
2023-03-08T00:33:00.721Z,84.72
2023-03-08T00:35:27.188Z,84.75
2023-03-08T00:37:53.701Z,85.02
2023-03-08T00:40:20.081Z,84.83
2023-03-08T00:42:46.524Z,84.96
2023-03-08T00:45:16.264Z,85.05
2023-03-08T00:47:42.696Z,85.17
2023-03-08T00:50:09.603Z,85.07
2023-03-08T00:52:36.240Z,85.38
2023-03-08T00:55:03.719Z,85.43
2023-03-08T00:57:30.102Z,85.53
2023-03-08T00:59:56.711Z,85.50
2023-03-08T01:02:24.006Z,85.53
2023-03-08T01:04:50.403Z,85.75
2023-03-08T01:07:17.032Z,85.83
2023-03-08T01:09:43.442Z,85.89
2023-03-08T01:12:09.942Z,86.00
2023-03-08T01:14:37.288Z,86.01
2023-03-08T01:17:04.017Z,86.16
2023-03-08T01:19:30.600Z,86.03
2023-03-08T01:21:57.900Z,86.14
2023-03-08T01:24:24.531Z,86.01
2023-03-08T01:26:51.132Z,85.96
2023-03-08T01:29:17.883Z,85.99
2023-03-08T01:31:45.129Z,85.94
2023-03-08T01:34:11.656Z,85.97
2023-03-08T01:36:38.324Z,85.88
2023-03-08T01:39:04.813Z,85.77
2023-03-08T01:41:31.617Z,85.93
2023-03-08T01:43:58.628Z,86.10
2023-03-08T01:46:35.437Z,86.00
2023-03-08T01:49:26.562Z,86.13
2023-03-08T01:52:11.938Z,86.31
2023-03-08T01:54:41.288Z,86.46
2023-03-08T01:57:19.429Z,86.32
2023-03-08T01:59:46.826Z,86.46
2023-03-08T02:02:13.204Z,86.43
2023-03-08T02:04:40.426Z,86.58
2023-03-08T02:07:09.381Z,86.69
2023-03-08T02:09:36.286Z,86.62
2023-03-08T02:12:07.395Z,86.71
2023-03-08T02:14:34.315Z,86.87
2023-03-08T02:17:00.710Z,86.85
2023-03-08T02:19:31.400Z,86.90
2023-03-08T02:21:57.689Z,86.84
2023-03-08T02:24:24.679Z,87.02
2023-03-08T02:26:54.989Z,86.96
2023-03-08T02:29:21.285Z,86.86
2023-03-08T02:31:47.531Z,87.09
2023-03-08T02:34:13.869Z,87.15
2023-03-08T02:36:40.188Z,87.04
2023-03-08T02:39:06.637Z,86.74
2023-03-08T02:41:32.905Z,86.77
2023-03-08T02:43:59.146Z,86.66
2023-03-08T02:46:25.414Z,86.66
2023-03-08T02:48:51.665Z,86.53
2023-03-08T02:51:18.051Z,86.77
2023-03-08T02:53:44.487Z,86.64
2023-03-08T02:56:11.024Z,87.01
2023-03-08T02:58:37.422Z,86.86
2023-03-08T03:01:09.509Z,86.77
2023-03-08T03:03:36.218Z,86.67
2023-03-08T03:06:02.584Z,86.69
2023-03-08T03:08:30.715Z,86.67
2023-03-08T03:10:57.050Z,86.84
2023-03-08T03:13:23.344Z,86.79
2023-03-08T03:15:50.395Z,86.95
2023-03-08T03:18:16.983Z,87.01
2023-03-08T03:20:43.240Z,87.12
2023-03-08T03:23:09.678Z,87.12
2023-03-08T03:25:44.290Z,87.07
2023-03-08T03:28:12.998Z,87.19
2023-03-08T03:30:39.776Z,87.23
2023-03-08T03:33:09.009Z,87.10
2023-03-08T03:35:37.058Z,87.17
2023-03-08T03:38:03.411Z,87.05
2023-03-08T03:40:29.906Z,87.08
2023-03-08T03:42:59.423Z,86.97
2023-03-08T03:45:25.754Z,86.91
2023-03-08T03:47:52.642Z,86.98
2023-03-08T03:50:19.146Z,87.07
2023-03-08T03:52:51.116Z,86.83
2023-03-08T03:55:17.565Z,86.80
2023-03-08T03:57:44.183Z,86.98
2023-03-08T04:00:13.632Z,86.91
2023-03-08T04:02:40.005Z,87.00
2023-03-08T04:05:07.283Z,86.99
2023-03-08T04:07:34.488Z,86.96
2023-03-08T04:10:01.130Z,87.08
2023-03-08T04:12:27.565Z,87.10
2023-03-08T04:14:55.053Z,87.37
2023-03-08T04:17:22.601Z,87.37
2023-03-08T04:19:51.817Z,87.36
2023-03-08T04:22:19.140Z,87.33
2023-03-08T04:24:52.215Z,87.46
2023-03-08T04:27:23.558Z,87.53
2023-03-08T04:29:50.007Z,87.35
2023-03-08T04:32:16.979Z,87.39
2023-03-08T04:34:49.263Z,87.47
2023-03-08T04:37:17.524Z,87.13
2023-03-08T04:39:47.017Z,87.07
2023-03-08T04:42:13.619Z,87.00
2023-03-08T04:44:40.175Z,86.88
2023-03-08T04:47:07.060Z,86.71
2023-03-08T04:49:41.496Z,86.63
2023-03-08T04:52:07.821Z,86.57
2023-03-08T04:54:35.180Z,86.39
2023-03-08T04:57:04.761Z,86.54
2023-03-08T04:59:32.152Z,86.35
2023-03-08T05:02:00.478Z,86.29
2023-03-08T05:04:27.606Z,86.17
2023-03-08T05:06:53.910Z,86.16
2023-03-08T05:09:23.223Z,86.01
2023-03-08T05:11:50.496Z,86.08
2023-03-08T05:14:16.888Z,86.14
2023-03-08T05:16:43.272Z,85.96
2023-03-08T05:19:10.137Z,86.04
2023-03-08T05:21:43.224Z,86.11
2023-03-08T05:24:09.541Z,86.25
2023-03-08T05:26:36.443Z,86.27
2023-03-08T05:29:03.298Z,86.22
2023-03-08T05:31:30.773Z,86.11
2023-03-08T05:33:58.580Z,85.96
2023-03-08T05:36:30.432Z,86.19
2023-03-08T05:38:57.123Z,85.83
2023-03-08T05:41:27.756Z,85.62
2023-03-08T05:43:54.757Z,85.54
2023-03-08T05:46:21.288Z,85.28
2023-03-08T05:48:47.941Z,85.11
2023-03-08T05:51:16.900Z,84.85
2023-03-08T05:53:44.505Z,84.58
2023-03-08T05:56:12.761Z,84.45
2023-03-08T05:58:43.571Z,84.05
2023-03-08T06:01:17.368Z,84.12
2023-03-08T06:03:47.632Z,83.73
2023-03-08T06:06:19.778Z,83.54
2023-03-08T06:21:53.843Z,82.68
2023-03-08T06:24:21.641Z,82.53
2023-03-08T06:26:48.797Z,82.07
2023-03-08T06:29:15.565Z,81.64
2023-03-08T06:31:41.921Z,81.66
2023-03-08T06:34:08.376Z,81.40
2023-03-08T06:36:43.210Z,81.53
2023-03-08T06:39:09.532Z,81.11
2023-03-08T06:41:35.877Z,81.30
2023-03-08T06:44:02.566Z,80.86
2023-03-08T06:46:29.081Z,80.75
2023-03-08T06:48:55.523Z,80.15
2023-03-08T06:51:22.557Z,80.18
2023-03-08T06:53:49.298Z,80.24
2023-03-08T06:56:18.652Z,79.79
2023-03-08T06:58:45.006Z,79.48
2023-03-08T07:01:12.320Z,79.42
2023-03-08T07:03:38.797Z,79.33
2023-03-08T07:06:06.815Z,78.85
2023-03-08T07:08:33.380Z,78.59
2023-03-08T07:10:59.832Z,78.66
2023-03-08T07:13:26.413Z,78.35
2023-03-08T07:15:52.780Z,77.66
2023-03-08T07:18:20.022Z,77.80
2023-03-08T07:20:54.951Z,78.01
2023-03-08T07:23:21.320Z,77.28
2023-03-08T07:25:47.623Z,76.89
2023-03-08T07:28:13.908Z,75.61
2023-03-08T07:30:40.411Z,75.82
2023-03-08T07:33:10.843Z,75.67
2023-03-08T07:35:39.869Z,75.58
2023-03-08T07:38:06.472Z,75.67
2023-03-08T07:40:32.846Z,75.74
2023-03-08T07:42:59.190Z,75.37
2023-03-08T07:45:43.678Z,75.02
2023-03-08T07:48:09.962Z,75.34
2023-03-08T07:50:36.328Z,75.42
2023-03-08T07:53:02.679Z,75.60
2023-03-08T07:55:29.191Z,75.81
2023-03-08T07:57:55.632Z,76.14
2023-03-08T08:00:23.138Z,76.30
2023-03-08T08:02:50.863Z,76.98
2023-03-08T08:05:19.244Z,77.24
2023-03-08T08:07:46.647Z,77.15
2023-03-08T08:10:13.377Z,77.83
2023-03-08T08:12:42.815Z,78.13
2023-03-08T08:15:34.876Z,78.77
2023-03-08T08:19:01.167Z,78.80
2023-03-08T08:22:05.847Z,79.34
2023-03-08T08:24:34.917Z,79.12
2023-03-08T08:27:01.238Z,78.81
2023-03-08T08:29:27.803Z,78.88
2023-03-08T08:31:54.140Z,78.73
2023-03-08T08:34:20.418Z,78.85
2023-03-08T08:36:46.889Z,78.67
2023-03-08T08:39:13.323Z,79.27
2023-03-08T08:41:39.741Z,79.06
2023-03-08T08:44:06.135Z,79.19
2023-03-08T08:46:32.491Z,78.57
2023-03-08T08:48:59.103Z,79.33
2023-03-08T08:51:25.801Z,79.19
2023-03-08T08:53:52.878Z,79.26
2023-03-08T08:56:27.204Z,79.43
2023-03-08T08:59:01.838Z,79.74
2023-03-08T09:01:29.453Z,79.44
2023-03-08T09:03:55.880Z,79.90
2023-03-08T09:06:22.956Z,80.08
2023-03-08T09:08:53.400Z,79.82
2023-03-08T09:11:19.763Z,79.54
2023-03-08T09:13:46.268Z,79.62
2023-03-08T09:16:17.206Z,79.87
2023-03-08T09:18:43.850Z,79.69
2023-03-08T09:21:10.329Z,79.14
2023-03-08T09:23:36.646Z,78.65
2023-03-08T09:26:03.092Z,78.18
2023-03-08T09:28:29.450Z,78.09
2023-03-08T09:34:45.419Z,77.79
2023-03-08T09:37:11.800Z,77.88
2023-03-08T09:39:42.936Z,77.37
2023-03-08T09:51:05.105Z,75.17
2023-03-08T09:54:03.583Z,74.37
2023-03-08T09:56:30.595Z,73.76
2023-03-08T09:59:05.001Z,72.69
2023-03-08T10:01:37.645Z,72.42
2023-03-08T10:04:11.955Z,71.42
2023-03-08T10:06:47.957Z,70.72
2023-03-08T10:09:32.655Z,67.29
2023-03-08T10:11:59.529Z,68.13
2023-03-08T10:14:29.546Z,67.85
2023-03-08T10:17:02.541Z,67.31
2023-03-08T10:19:41.290Z,66.28
2023-03-08T10:22:14.520Z,66.63
2023-03-08T10:24:44.918Z,66.83
2023-03-08T10:27:25.011Z,66.02
2023-03-08T10:29:52.301Z,65.96
2023-03-08T10:32:19.007Z,63.65
2023-03-08T10:34:45.480Z,64.11
2023-03-08T10:37:12.172Z,62.26
2023-03-08T10:39:47.719Z,61.20
2023-03-08T10:42:14.787Z,62.87
2023-03-08T10:44:43.770Z,62.99
2023-03-08T10:47:29.058Z,63.03
2023-03-08T10:50:10.637Z,62.47
2023-03-08T10:52:37.074Z,61.41
2023-03-08T10:55:03.442Z,60.79
2023-03-08T10:57:30.020Z,59.84
2023-03-08T10:59:59.072Z,60.41
2023-03-08T11:02:25.410Z,60.82
2023-03-08T11:04:53.033Z,60.69
2023-03-08T11:07:24.141Z,60.69
2023-03-08T11:09:50.629Z,60.37
2023-03-08T11:12:21.496Z,59.51
2023-03-08T11:14:48.367Z,58.88
2023-03-08T11:17:21.975Z,57.90
2023-03-08T11:20:06.962Z,56.86
2023-03-08T11:22:33.948Z,55.99
2023-03-08T11:25:04.552Z,55.06
2023-03-08T11:27:40.464Z,52.93
2023-03-08T11:30:35.323Z,53.09
2023-03-08T11:33:08.298Z,53.88
2023-03-08T11:35:44.209Z,54.39
2023-03-08T11:38:16.389Z,54.12
2023-03-08T11:41:02.005Z,53.36
2023-03-08T11:43:31.297Z,54.63
2023-03-08T11:46:04.034Z,55.14
2023-03-08T11:48:33.720Z,55.29
2023-03-08T11:51:05.198Z,55.71
2023-03-08T11:53:31.489Z,55.80
2023-03-08T11:56:11.474Z,56.29
2023-03-08T11:58:41.971Z,56.46
2023-03-08T12:01:31.610Z,57.05
2023-03-08T12:04:03.288Z,57.49
2023-03-08T12:06:42.016Z,58.27
2023-03-08T12:09:27.017Z,58.78
2023-03-08T12:11:57.629Z,57.77
2023-03-08T12:14:29.617Z,58.20
2023-03-08T12:17:03.666Z,58.33
2023-03-08T12:19:29.993Z,58.25
2023-03-08T12:22:08.379Z,58.88
2023-03-08T12:24:50.083Z,58.88
2023-03-08T12:27:33.946Z,58.80
2023-03-08T12:30:00.187Z,58.44
2023-03-08T12:32:27.152Z,58.16
2023-03-08T12:35:02.060Z,57.14
2023-03-08T12:37:29.058Z,56.42
2023-03-08T12:39:55.423Z,54.36
2023-03-08T12:42:48.091Z,52.85
2023-03-08T12:45:20.484Z,50.91
2023-03-08T12:48:05.609Z,50.64
2023-03-08T12:50:35.563Z,50.66
2023-03-08T12:53:01.920Z,50.99
2023-03-08T12:55:29.436Z,51.36
2023-03-08T12:57:56.617Z,51.96
2023-03-08T13:00:24.998Z,52.19
2023-03-08T13:03:02.869Z,52.73
2023-03-08T13:05:29.318Z,53.36
2023-03-08T13:08:01.465Z,53.94
2023-03-08T13:10:35.444Z,54.32
2023-03-08T13:13:20.467Z,54.45
2023-03-08T13:16:04.553Z,53.97
2023-03-08T13:18:30.943Z,54.41
2023-03-08T13:21:00.254Z,54.07
2023-03-08T13:23:34.623Z,54.20
2023-03-08T13:26:01.002Z,53.86
2023-03-08T13:28:46.075Z,53.45
2023-03-08T13:31:17.884Z,54.00
2023-03-08T13:33:48.651Z,54.80
2023-03-08T13:36:18.360Z,53.95
2023-03-08T13:38:53.553Z,53.43
2023-03-08T13:41:29.779Z,53.72
2023-03-08T13:43:59.935Z,54.17
2023-03-08T13:46:27.096Z,53.84
2023-03-08T13:48:53.575Z,53.70
2023-03-08T13:51:22.319Z,52.82
2023-03-08T13:53:48.940Z,52.42
2023-03-08T13:56:23.529Z,52.94
2023-03-08T13:58:50.742Z,53.04
2023-03-08T14:01:19.025Z,52.99
2023-03-08T14:03:46.389Z,52.64
2023-03-08T14:06:30.397Z,51.87
2023-03-08T14:08:57.393Z,51.98
2023-03-08T14:11:36.542Z,51.15
2023-03-08T14:14:05.148Z,50.64
2023-03-08T14:16:31.708Z,51.13
2023-03-08T14:18:59.174Z,51.41
2023-03-08T14:21:29.508Z,50.99
2023-03-08T14:24:00.367Z,51.50
2023-03-08T14:26:29.123Z,51.52
2023-03-08T14:29:22.106Z,51.57
2023-03-08T14:31:57.165Z,51.85
2023-03-08T14:34:24.965Z,51.41
2023-03-08T14:36:56.184Z,52.07
2023-03-08T14:39:23.878Z,52.42
2023-03-08T14:41:50.698Z,52.81
2023-03-08T14:44:19.359Z,52.98
2023-03-08T14:46:46.134Z,53.47
2023-03-08T14:49:20.466Z,53.56
2023-03-08T14:51:46.875Z,53.49
2023-03-08T14:54:19.515Z,53.46
2023-03-08T14:56:46.031Z,53.33
2023-03-08T14:59:25.181Z,53.73
2023-03-08T15:01:54.821Z,54.41
2023-03-08T15:04:23.260Z,54.39
2023-03-08T15:06:50.519Z,54.34
2023-03-08T15:09:18.544Z,54.54
2023-03-08T15:11:45.945Z,54.60
2023-03-08T15:14:12.820Z,54.56
2023-03-08T15:16:39.713Z,54.73
2023-03-08T15:19:06.148Z,54.80
2023-03-08T15:21:32.747Z,54.99
2023-03-08T15:23:59.910Z,55.01
2023-03-08T15:26:27.753Z,55.49
2023-03-08T15:28:54.672Z,55.83
2023-03-08T15:31:20.975Z,56.19
2023-03-08T15:33:47.308Z,56.85
2023-03-08T15:36:14.770Z,57.22
2023-03-08T15:38:41.584Z,57.65
2023-03-08T15:41:11.840Z,57.90
2023-03-08T15:43:38.206Z,58.50
2023-03-08T15:46:04.719Z,59.08
2023-03-08T15:48:31.086Z,59.91
2023-03-08T15:50:57.645Z,60.54
2023-03-08T15:53:34.917Z,61.25
2023-03-08T15:56:02.462Z,61.89
2023-03-08T15:58:28.898Z,62.96
2023-03-08T16:00:55.177Z,63.72
2023-03-08T16:03:22.182Z,64.81
2023-03-08T16:05:48.912Z,65.73
2023-03-08T16:08:15.195Z,66.43
2023-03-08T16:10:42.563Z,67.09
2023-03-08T16:13:09.334Z,68.74
2023-03-08T16:15:38.447Z,69.10
2023-03-08T16:18:04.765Z,70.02
2023-03-08T16:20:31.697Z,70.40
2023-03-08T16:22:57.967Z,71.35
2023-03-08T16:25:27.305Z,71.80
2023-03-08T16:27:54.389Z,72.67
2023-03-08T16:30:20.798Z,72.72
2023-03-08T16:32:47.190Z,73.49
2023-03-08T16:35:13.627Z,73.91
2023-03-08T16:37:39.915Z,74.59
2023-03-08T16:40:07.588Z,74.96
2023-03-08T16:42:34.141Z,75.38
2023-03-08T16:45:00.865Z,75.93
2023-03-08T16:47:27.579Z,76.52
2023-03-08T16:49:54.026Z,76.81
2023-03-08T16:52:20.332Z,77.32
2023-03-08T16:54:46.693Z,77.57
2023-03-08T16:57:19.141Z,77.88
2023-03-08T16:59:46.592Z,78.07
2023-03-08T17:02:14.385Z,78.66
2023-03-08T17:04:40.878Z,79.10
2023-03-08T17:07:07.246Z,79.50
2023-03-08T17:09:34.332Z,79.98
2023-03-08T17:12:01.524Z,80.24
2023-03-08T17:14:27.901Z,80.84
2023-03-08T17:16:54.270Z,81.38
2023-03-08T17:19:20.874Z,81.96
2023-03-08T17:21:49.427Z,82.06
2023-03-08T17:24:17.280Z,82.64
2023-03-08T17:26:47.320Z,83.24
2023-03-08T17:29:14.047Z,83.43
2023-03-08T17:31:41.364Z,83.64
2023-03-08T17:34:08.189Z,83.81
2023-03-08T17:36:34.574Z,84.14
2023-03-08T17:39:01.361Z,84.40
2023-03-08T17:41:27.925Z,84.77
2023-03-08T17:43:54.441Z,85.14
2023-03-08T17:46:22.540Z,85.17
2023-03-08T17:48:49.276Z,85.23
2023-03-08T17:51:17.235Z,85.72
2023-03-08T17:53:44.404Z,85.63
2023-03-08T17:56:12.201Z,86.05
2023-03-08T17:58:39.038Z,86.26
2023-03-08T18:01:06.466Z,86.39
2023-03-08T18:03:33.259Z,86.56
2023-03-08T18:05:59.573Z,86.65
2023-03-08T18:08:26.506Z,86.87
2023-03-08T18:10:52.840Z,87.03
2023-03-08T18:13:19.539Z,87.25
2023-03-08T18:15:48.580Z,87.37
2023-03-08T18:18:14.928Z,87.54
2023-03-08T18:20:41.367Z,87.87
2023-03-08T18:23:08.088Z,87.86
2023-03-08T18:25:34.641Z,88.14
2023-03-08T18:28:02.764Z,88.14
2023-03-08T18:30:29.952Z,88.52
2023-03-08T18:32:56.379Z,88.48
2023-03-08T18:35:25.499Z,88.75
2023-03-08T18:37:52.633Z,89.15
2023-03-08T18:40:19.332Z,89.05
2023-03-08T18:42:45.991Z,89.17
2023-03-08T18:45:12.904Z,89.15
2023-03-08T18:47:40.122Z,89.42
2023-03-08T18:50:07.601Z,89.58
2023-03-08T18:52:34.601Z,89.58
2023-03-08T18:55:23.762Z,90.06
2023-03-08T18:57:59.490Z,90.15
2023-03-08T19:00:26.303Z,90.30
2023-03-08T19:02:52.883Z,90.37
2023-03-08T19:05:21.261Z,90.65
2023-03-08T19:07:51.727Z,90.73
2023-03-08T19:10:20.714Z,90.61
2023-03-08T19:12:47.722Z,90.51
2023-03-08T19:15:15.239Z,90.94
2023-03-08T19:17:42.553Z,91.16
2023-03-08T19:20:09.483Z,91.32
2023-03-08T19:22:37.430Z,91.35
2023-03-08T19:25:04.049Z,91.46
2023-03-08T19:27:35.057Z,91.71
2023-03-08T19:30:02.573Z,91.64
2023-03-08T19:32:29.696Z,91.76
2023-03-08T19:34:56.325Z,91.88
2023-03-08T19:37:37.608Z,91.90
2023-03-08T19:40:08.001Z,92.12
2023-03-08T19:42:44.674Z,91.76
2023-03-08T19:45:12.312Z,92.29
2023-03-08T19:47:39.783Z,92.20
2023-03-08T19:50:06.880Z,92.47
2023-03-08T19:52:34.999Z,92.48
2023-03-08T19:55:02.204Z,92.90
2023-03-08T19:57:29.768Z,93.03
2023-03-08T19:59:58.570Z,93.00
2023-03-08T20:02:26.460Z,93.08
2023-03-08T20:04:53.738Z,93.12
2023-03-08T20:07:24.930Z,93.15
2023-03-08T20:09:52.419Z,93.34
2023-03-08T20:12:19.632Z,93.32
2023-03-08T20:14:46.328Z,93.33
2023-03-08T20:17:13.041Z,93.54
2023-03-08T20:19:39.859Z,93.61
2023-03-08T20:22:06.783Z,93.69
2023-03-08T20:24:33.448Z,93.75
2023-03-08T20:27:01.121Z,93.91
2023-03-08T20:29:27.726Z,93.62
2023-03-08T20:31:54.328Z,93.93
2023-03-08T20:34:20.901Z,94.20
2023-03-08T20:36:47.439Z,94.38
2023-03-08T20:39:13.974Z,94.46
2023-03-08T20:41:40.528Z,94.53
2023-03-08T20:44:09.880Z,94.50
2023-03-08T20:46:36.485Z,94.62
2023-03-08T20:49:03.054Z,94.82
2023-03-08T20:51:40.302Z,94.63
2023-03-08T20:54:06.997Z,94.90
2023-03-08T20:56:33.698Z,95.13
2023-03-08T20:59:00.289Z,95.04
2023-03-08T21:01:28.605Z,95.27
2023-03-08T21:03:55.064Z,95.48
2023-03-08T21:06:23.342Z,95.49
2023-03-08T21:08:49.766Z,95.41
2023-03-08T21:11:17.041Z,95.63
2023-03-08T21:13:44.032Z,95.52
2023-03-08T21:16:11.569Z,95.83
2023-03-08T21:18:38.293Z,95.95
2023-03-08T21:21:05.119Z,95.89
2023-03-08T21:23:31.595Z,96.02
2023-03-08T21:25:59.135Z,96.14
2023-03-08T21:28:25.695Z,96.10
2023-03-08T21:30:52.095Z,96.18
2023-03-08T21:33:18.506Z,96.18
2023-03-08T21:35:44.968Z,96.12
2023-03-08T21:38:11.387Z,96.37
2023-03-08T21:40:38.706Z,96.28
2023-03-08T21:43:05.424Z,96.59
2023-03-08T21:45:32.805Z,96.53
2023-03-08T21:47:59.156Z,96.88
2023-03-08T21:50:26.747Z,96.95
2023-03-08T21:52:54.218Z,97.15
2023-03-08T21:55:20.522Z,97.15
2023-03-08T21:57:47.056Z,97.52
2023-03-08T22:00:16.588Z,97.56
2023-03-08T22:02:43.705Z,97.40
2023-03-08T22:05:13.001Z,97.60
2023-03-08T22:07:41.588Z,97.48
2023-03-08T22:10:09.782Z,97.56
2023-03-08T22:12:36.103Z,97.79
2023-03-08T22:15:02.783Z,98.09
2023-03-08T22:17:29.106Z,98.22
2023-03-08T22:19:55.426Z,98.39
2023-03-08T22:22:21.769Z,98.37
2023-03-08T22:24:48.141Z,98.94
2023-03-08T22:27:14.481Z,98.85
2023-03-08T22:29:40.948Z,98.97
2023-03-08T22:32:07.359Z,99.30
2023-03-08T22:34:34.128Z,99.50
2023-03-08T22:37:00.485Z,99.79
2023-03-08T22:39:27.272Z,99.87
2023-03-08T22:41:53.603Z,99.84
2023-03-08T22:44:20.035Z,100.00
2023-03-08T22:46:46.524Z,100.00
2023-03-08T22:49:13.444Z,100.00
2023-03-08T22:51:41.234Z,100.00
2023-03-08T22:54:13.386Z,100.00
2023-03-08T22:56:39.701Z,100.00
2023-03-08T22:59:06.127Z,100.00
2023-03-08T23:01:32.606Z,100.00
2023-03-08T23:04:00.070Z,100.00
2023-03-08T23:06:27.513Z,100.00
2023-03-08T23:08:54.715Z,100.00
2023-03-08T23:11:21.109Z,100.00
2023-03-08T23:13:47.467Z,100.00
2023-03-08T23:16:14.882Z,100.00
2023-03-08T23:18:41.790Z,100.00
2023-03-08T23:21:09.597Z,100.00
2023-03-08T23:23:36.036Z,100.00
2023-03-08T23:26:06.568Z,100.00
2023-03-08T23:28:33.494Z,100.00
2023-03-08T23:31:00.047Z,100.00
2023-03-08T23:33:26.560Z,100.00
2023-03-08T23:35:52.940Z,100.00
2023-03-08T23:38:19.316Z,100.00
2023-03-08T23:40:45.679Z,100.00
2023-03-08T23:43:11.991Z,100.00
2023-03-08T23:45:38.749Z,100.00
2023-03-08T23:48:05.499Z,100.00
2023-03-08T23:50:31.855Z,100.00
2023-03-08T23:52:58.213Z,100.00
2023-03-08T23:55:24.620Z,100.00
2023-03-08T23:57:50.939Z,100.00
